createdAt,value
2019-03-27T00:00:34.750Z,1.80
2019-03-27T00:03:03.602Z,1.62
2019-03-27T00:05:32.414Z,2.00
2019-03-27T00:08:01.176Z,1.65
2019-03-27T00:10:30.500Z,2.00
2019-03-27T00:12:59.273Z,1.45
2019-03-27T00:15:28.278Z,1.75
2019-03-27T00:17:57.461Z,1.57
2019-03-27T00:20:26.288Z,1.57
2019-03-27T00:22:55.114Z,1.20
2019-03-27T00:25:23.917Z,1.40
2019-03-27T00:27:52.753Z,1.52
2019-03-27T00:30:21.549Z,1.70
2019-03-27T00:32:50.387Z,1.92
2019-03-27T00:35:19.179Z,2.00
2019-03-27T00:37:47.944Z,1.65
2019-03-27T00:40:17.345Z,2.00
2019-03-27T00:42:46.182Z,1.80
2019-03-27T00:45:25.943Z,1.60
2019-03-27T00:47:46.171Z,1.77
2019-03-27T00:50:15.043Z,1.35
2019-03-27T00:52:43.837Z,1.82
2019-03-27T00:55:13.441Z,1.72
2019-03-27T00:57:42.280Z,1.57
2019-03-27T01:00:26.135Z,1.82
2019-03-27T01:02:56.153Z,2.45
2019-03-27T01:05:24.814Z,2.15
2019-03-27T01:07:53.682Z,1.72
2019-03-27T01:10:22.533Z,1.52
2019-03-27T01:12:51.265Z,1.72
2019-03-27T01:15:20.117Z,2.20
2019-03-27T01:17:48.917Z,1.90
2019-03-27T01:20:19.556Z,1.77
2019-03-27T01:22:48.336Z,2.15
2019-03-27T01:25:17.249Z,1.65
2019-03-27T01:27:46.055Z,2.02
2019-03-27T01:30:15.284Z,1.70
2019-03-27T01:32:44.047Z,1.90
2019-03-27T01:35:13.007Z,1.40
2019-03-27T01:37:41.708Z,1.60
2019-03-27T01:40:11.931Z,1.42
2019-03-27T01:42:41.092Z,1.77
2019-03-27T01:45:10.390Z,2.02
2019-03-27T01:47:39.161Z,2.70
2019-03-27T01:50:09.162Z,2.30
2019-03-27T01:52:57.642Z,2.30
2019-03-27T01:55:26.488Z,2.33
2019-03-27T01:57:55.727Z,1.87
2019-03-27T02:00:24.528Z,2.00
2019-03-27T02:02:53.602Z,2.40
2019-03-27T02:05:22.375Z,2.80
2019-03-27T02:07:51.181Z,3.00
2019-03-27T02:10:20.272Z,2.10
2019-03-27T02:12:49.099Z,2.00
2019-03-27T02:15:18.481Z,2.12
2019-03-27T02:17:47.313Z,1.45
2019-03-27T02:20:16.111Z,1.90
2019-03-27T02:22:44.919Z,1.60
2019-03-27T02:25:13.877Z,1.75
2019-03-27T02:27:42.667Z,1.80
2019-03-27T02:30:12.038Z,2.20
2019-03-27T02:32:40.888Z,2.08
2019-03-27T02:35:09.785Z,1.70
2019-03-27T02:37:38.613Z,1.82
2019-03-27T02:40:08.235Z,1.40
2019-03-27T02:42:37.047Z,2.02
2019-03-27T02:45:06.889Z,2.10
2019-03-27T02:47:35.703Z,1.95
2019-03-27T02:50:06.160Z,2.30
2019-03-27T02:52:34.960Z,1.75
2019-03-27T02:55:04.442Z,1.98
2019-03-27T02:57:33.217Z,1.90
2019-03-27T03:00:02.045Z,1.50
2019-03-27T03:02:30.936Z,1.52
2019-03-27T03:04:59.715Z,1.90
2019-03-27T03:07:28.525Z,1.85
2019-03-27T03:09:58.568Z,1.45
2019-03-27T03:12:27.389Z,1.95
2019-03-27T03:14:56.187Z,1.98
2019-03-27T03:17:25.016Z,2.08
2019-03-27T03:19:53.783Z,1.72
2019-03-27T03:22:22.620Z,2.05
2019-03-27T03:24:51.779Z,2.17
2019-03-27T03:27:20.606Z,1.85
2019-03-27T03:29:49.406Z,1.75
2019-03-27T03:32:18.239Z,2.10
2019-03-27T03:34:47.041Z,1.80
2019-03-27T03:37:15.849Z,2.05
2019-03-27T03:39:44.684Z,1.65
2019-03-27T03:42:13.507Z,1.42
2019-03-27T03:44:42.338Z,2.00
2019-03-27T03:47:11.465Z,1.55
2019-03-27T03:49:40.288Z,1.50
2019-03-27T03:52:09.469Z,1.37
2019-03-27T03:54:38.657Z,2.10
2019-03-27T03:57:08.188Z,1.37
2019-03-27T03:59:39.315Z,1.47
2019-03-27T04:02:08.125Z,1.85
2019-03-27T04:04:37.777Z,1.27
2019-03-27T04:07:06.619Z,1.50
2019-03-27T04:09:35.424Z,1.72
2019-03-27T04:12:04.233Z,1.70
2019-03-27T04:14:33.075Z,1.85
2019-03-27T04:17:16.127Z,1.62
2019-03-27T04:19:32.388Z,1.80
2019-03-27T04:22:01.125Z,1.67
2019-03-27T04:24:29.948Z,1.37
2019-03-27T04:26:58.755Z,1.60
2019-03-27T04:29:27.927Z,2.10
2019-03-27T04:31:56.655Z,1.52
2019-03-27T04:34:25.380Z,1.57
2019-03-27T04:36:54.216Z,1.22
2019-03-27T04:39:23.011Z,1.55
2019-03-27T04:41:51.970Z,2.12
2019-03-27T04:44:20.764Z,1.72
2019-03-27T04:46:49.556Z,2.10
2019-03-27T04:49:18.408Z,1.57
2019-03-27T04:51:47.186Z,1.72
2019-03-27T04:54:15.998Z,1.80
2019-03-27T04:56:44.836Z,1.85
2019-03-27T04:59:14.548Z,1.67
2019-03-27T05:01:43.373Z,1.40
2019-03-27T05:04:12.370Z,1.52
2019-03-27T05:06:41.210Z,1.60
2019-03-27T05:09:10.531Z,2.33
2019-03-27T05:11:39.415Z,1.30
2019-03-27T05:14:08.252Z,1.98
2019-03-27T05:16:37.088Z,1.60
2019-03-27T05:19:05.895Z,1.98
2019-03-27T05:21:35.830Z,1.67
2019-03-27T05:24:04.662Z,2.08
2019-03-27T05:26:33.519Z,1.92
2019-03-27T05:29:02.798Z,2.12
2019-03-27T05:31:31.596Z,1.90
2019-03-27T05:34:00.345Z,2.05
2019-03-27T05:36:29.184Z,1.62
2019-03-27T05:38:58.034Z,1.67
2019-03-27T05:41:26.839Z,1.65
2019-03-27T05:43:55.607Z,1.92
2019-03-27T05:46:26.572Z,1.55
2019-03-27T05:48:55.255Z,1.50
2019-03-27T05:51:24.106Z,1.37
2019-03-27T05:53:52.898Z,2.08
2019-03-27T05:56:21.732Z,1.92
2019-03-27T05:58:50.513Z,1.98
2019-03-27T06:01:19.340Z,1.47
2019-03-27T06:03:48.151Z,2.00
2019-03-27T06:06:17.937Z,1.77
2019-03-27T06:08:46.784Z,2.00
2019-03-27T06:11:16.099Z,2.45
2019-03-27T06:13:44.826Z,2.00
2019-03-27T06:16:13.962Z,2.02
2019-03-27T06:18:46.974Z,1.82
2019-03-27T06:21:16.713Z,1.95
2019-03-27T06:23:46.749Z,2.12
2019-03-27T06:26:17.122Z,1.98
2019-03-27T06:28:48.992Z,1.95
2019-03-27T06:31:20.035Z,1.92
2019-03-27T06:33:50.897Z,1.85
2019-03-27T06:36:22.392Z,1.70
2019-03-27T06:38:52.746Z,1.50
2019-03-27T06:41:23.214Z,1.90
2019-03-27T06:43:53.484Z,1.42
2019-03-27T06:46:23.880Z,2.12
2019-03-27T06:48:54.079Z,2.40
2019-03-27T06:51:25.350Z,1.92
2019-03-27T06:53:54.699Z,1.90
2019-03-27T06:56:24.132Z,2.55
2019-03-27T06:58:55.210Z,1.92
2019-03-27T07:01:24.021Z,1.82
2019-03-27T07:03:53.802Z,1.95
2019-03-27T07:06:24.864Z,1.82
2019-03-27T07:08:57.373Z,1.80
2019-03-27T07:11:28.167Z,2.00
2019-03-27T07:13:59.707Z,2.02
2019-03-27T07:16:29.467Z,1.98
2019-03-27T07:18:59.866Z,1.72
2019-03-27T07:21:30.562Z,1.92
2019-03-27T07:24:02.587Z,1.82
2019-03-27T07:26:32.070Z,1.60
2019-03-27T07:29:02.742Z,2.22
2019-03-27T07:31:34.579Z,2.05
2019-03-27T07:34:05.034Z,2.10
2019-03-27T07:36:34.884Z,1.60
2019-03-27T07:39:11.204Z,2.05
2019-03-27T07:41:37.979Z,1.87
2019-03-27T07:44:09.339Z,1.62
2019-03-27T07:46:39.010Z,1.77
2019-03-27T07:49:09.817Z,1.70
2019-03-27T07:51:38.795Z,1.50
2019-03-27T07:54:08.194Z,2.33
2019-03-27T07:56:40.117Z,1.60
2019-03-27T07:59:09.267Z,1.50
2019-03-27T08:01:39.002Z,1.72
2019-03-27T08:04:14.353Z,1.70
2019-03-27T08:06:42.408Z,1.90
2019-03-27T08:09:13.005Z,1.60
2019-03-27T08:11:43.514Z,1.37
2019-03-27T08:14:13.988Z,1.90
2019-03-27T08:16:44.740Z,1.45
2019-03-27T08:19:14.535Z,1.30
2019-03-27T08:21:44.285Z,1.70
2019-03-27T08:24:13.504Z,2.22
2019-03-27T08:26:43.219Z,1.40
2019-03-27T08:29:16.371Z,1.70
2019-03-27T08:31:46.079Z,1.77
2019-03-27T08:34:16.760Z,1.62
2019-03-27T08:36:45.594Z,1.45
2019-03-27T08:39:16.130Z,1.75
2019-03-27T08:41:45.770Z,1.50
2019-03-27T08:44:19.031Z,1.77
2019-03-27T08:46:48.644Z,1.60
2019-03-27T08:49:22.209Z,1.72
2019-03-27T08:51:50.517Z,1.90
2019-03-27T08:54:19.650Z,1.72
2019-03-27T08:56:49.522Z,1.70
2019-03-27T08:59:20.816Z,1.57
2019-03-27T09:01:51.184Z,1.95
2019-03-27T09:04:24.134Z,1.70
2019-03-27T09:06:55.935Z,1.82
2019-03-27T09:09:26.065Z,1.95
2019-03-27T09:11:55.864Z,1.98
2019-03-27T09:14:28.108Z,2.20
2019-03-27T09:16:59.144Z,1.77
2019-03-27T09:19:35.598Z,1.92
2019-03-27T09:22:01.347Z,2.08
2019-03-27T09:24:30.288Z,2.17
2019-03-27T09:27:00.431Z,1.85
2019-03-27T09:29:29.746Z,2.08
2019-03-27T09:32:00.187Z,1.72
2019-03-27T09:34:29.314Z,1.92
2019-03-27T09:36:58.294Z,2.00
2019-03-27T09:39:28.788Z,1.85
2019-03-27T09:41:58.774Z,1.80
2019-03-27T09:44:29.122Z,2.00
2019-03-27T09:46:58.207Z,2.33
2019-03-27T09:49:27.808Z,1.80
2019-03-27T09:51:58.177Z,2.02
2019-03-27T09:54:27.796Z,1.90
2019-03-27T09:56:58.186Z,1.60
2019-03-27T09:59:29.064Z,1.77
2019-03-27T10:01:59.899Z,1.85
2019-03-27T10:04:31.709Z,1.60
2019-03-27T10:07:03.263Z,1.90
2019-03-27T10:09:33.829Z,1.90
2019-03-27T10:12:03.077Z,1.60
2019-03-27T10:14:32.123Z,1.52
2019-03-27T10:17:03.256Z,1.90
2019-03-27T10:19:33.916Z,1.98
2019-03-27T10:22:03.003Z,1.75
2019-03-27T10:24:33.324Z,1.80
2019-03-27T10:27:03.702Z,1.80
2019-03-27T10:29:33.521Z,1.90
2019-03-27T10:32:05.373Z,1.70
2019-03-27T10:34:34.850Z,1.80
2019-03-27T10:37:04.598Z,2.15
2019-03-27T10:39:33.678Z,1.62
2019-03-27T10:42:04.867Z,2.15
2019-03-27T10:44:34.639Z,1.62
2019-03-27T10:47:03.581Z,1.87
2019-03-27T10:49:34.549Z,1.92
2019-03-27T10:52:06.200Z,2.08
2019-03-27T10:54:37.673Z,2.00
2019-03-27T10:57:07.479Z,1.75
2019-03-27T10:59:37.956Z,1.80
2019-03-27T11:02:07.755Z,1.80
2019-03-27T11:04:38.794Z,2.02
2019-03-27T11:07:11.018Z,1.92
2019-03-27T11:09:40.300Z,1.90
2019-03-27T11:12:11.286Z,1.90
2019-03-27T11:14:42.655Z,1.90
2019-03-27T11:17:12.563Z,2.15
2019-03-27T11:19:41.668Z,2.00
2019-03-27T11:22:11.427Z,2.10
2019-03-27T11:24:40.554Z,1.47
2019-03-27T11:27:13.610Z,1.85
2019-03-27T11:29:42.816Z,1.95
2019-03-27T11:32:13.775Z,2.12
2019-03-27T11:34:43.446Z,1.80
2019-03-27T11:37:12.546Z,2.17
2019-03-27T11:39:42.309Z,1.87
2019-03-27T11:42:13.372Z,2.00
2019-03-27T11:44:44.552Z,2.10
2019-03-27T11:47:15.214Z,1.85
2019-03-27T11:49:45.478Z,1.85
2019-03-27T11:52:15.255Z,1.98
2019-03-27T11:54:44.269Z,2.10
2019-03-27T11:57:15.311Z,2.27
2019-03-27T11:59:53.950Z,1.72
2019-03-27T12:02:18.332Z,2.22
2019-03-27T12:04:47.462Z,2.20
2019-03-27T12:07:18.874Z,1.80
2019-03-27T12:09:50.078Z,2.22
2019-03-27T12:12:19.667Z,2.33
2019-03-27T12:14:49.873Z,2.20
2019-03-27T12:17:20.407Z,1.87
2019-03-27T12:19:51.440Z,1.62
2019-03-27T12:22:21.765Z,1.80
2019-03-27T12:24:50.724Z,2.20
2019-03-27T12:27:23.418Z,2.05
2019-03-27T12:29:52.539Z,2.27
2019-03-27T12:32:25.013Z,2.30
2019-03-27T12:34:53.418Z,2.55
2019-03-27T12:37:22.456Z,2.08
2019-03-27T12:39:51.519Z,2.00
2019-03-27T12:42:22.496Z,2.40
2019-03-27T12:44:53.180Z,1.80
2019-03-27T12:47:23.926Z,2.05
2019-03-27T12:49:53.963Z,2.10
2019-03-27T12:52:28.583Z,2.22
2019-03-27T12:54:59.077Z,2.12
2019-03-27T12:57:28.659Z,2.33
2019-03-27T13:00:00.386Z,1.85
2019-03-27T13:02:29.400Z,2.25
2019-03-27T13:05:00.026Z,2.42
2019-03-27T13:07:30.224Z,2.20
2019-03-27T13:09:59.836Z,1.90
2019-03-27T13:12:30.654Z,2.50
2019-03-27T13:15:02.386Z,2.42
2019-03-27T13:17:34.440Z,1.90
2019-03-27T13:20:06.042Z,2.30
2019-03-27T13:22:38.035Z,1.80
2019-03-27T13:25:09.567Z,2.27
2019-03-27T13:27:40.427Z,2.50
2019-03-27T13:30:12.923Z,2.10
2019-03-27T13:32:44.852Z,2.77
2019-03-27T13:35:13.652Z,2.37
2019-03-27T13:37:46.842Z,2.40
2019-03-27T13:40:18.969Z,2.50
2019-03-27T13:42:48.661Z,2.40
2019-03-27T13:45:18.885Z,3.12
2019-03-27T13:47:51.643Z,3.10
2019-03-27T13:50:25.964Z,2.67
2019-03-27T13:53:00.582Z,2.50
2019-03-27T13:55:29.744Z,3.17
2019-03-27T13:57:59.501Z,2.72
2019-03-27T14:00:29.231Z,2.72
2019-03-27T14:02:58.062Z,2.37
2019-03-27T14:05:28.325Z,2.60
2019-03-27T14:08:00.324Z,2.95
2019-03-27T14:10:30.476Z,2.25
2019-03-27T14:13:00.988Z,2.40
2019-03-27T14:15:32.192Z,2.65
2019-03-27T14:18:02.571Z,2.55
2019-03-27T14:20:32.293Z,2.77
2019-03-27T14:23:01.448Z,2.62
2019-03-27T14:25:33.623Z,1.98
2019-03-27T14:28:02.810Z,2.60
2019-03-27T14:30:52.563Z,3.15
2019-03-27T14:33:23.134Z,2.95
2019-03-27T14:35:53.354Z,2.52
2019-03-27T14:38:22.295Z,2.95
2019-03-27T14:40:51.336Z,2.35
2019-03-27T14:43:22.214Z,2.67
2019-03-27T14:45:53.925Z,2.87
2019-03-27T14:48:23.021Z,2.27
2019-03-27T14:50:55.343Z,2.58
2019-03-27T14:53:26.425Z,3.17
2019-03-27T14:55:56.954Z,3.00
2019-03-27T14:58:29.103Z,2.77
2019-03-27T15:00:58.092Z,2.87
2019-03-27T15:03:28.536Z,2.50
2019-03-27T15:05:59.507Z,2.62
2019-03-27T15:08:30.550Z,3.08
2019-03-27T15:11:01.286Z,3.27
2019-03-27T15:13:33.048Z,3.45
2019-03-27T15:16:05.304Z,3.00
2019-03-27T15:18:34.364Z,2.58
2019-03-27T15:21:04.111Z,2.95
2019-03-27T15:23:33.783Z,2.77
2019-03-27T15:26:02.653Z,2.95
2019-03-27T15:28:33.465Z,2.72
2019-03-27T15:31:03.199Z,2.75
2019-03-27T15:33:33.743Z,2.30
2019-03-27T15:36:03.676Z,2.72
2019-03-27T15:38:35.421Z,2.17
2019-03-27T15:41:05.426Z,2.80
2019-03-27T15:43:36.048Z,2.70
2019-03-27T15:46:04.779Z,2.42
2019-03-27T15:48:34.531Z,2.55
2019-03-27T15:51:04.840Z,2.55
2019-03-27T15:53:35.810Z,2.60
2019-03-27T15:56:04.898Z,2.55
2019-03-27T15:58:35.171Z,2.47
2019-03-27T16:01:05.566Z,2.00
2019-03-27T16:03:34.342Z,2.33
2019-03-27T16:06:04.644Z,1.72
2019-03-27T16:08:34.234Z,2.85
2019-03-27T16:11:03.744Z,2.15
2019-03-27T16:13:33.252Z,2.08
2019-03-27T16:16:03.080Z,2.98
2019-03-27T16:18:31.884Z,2.15
2019-03-27T16:21:01.576Z,2.00
2019-03-27T16:23:32.415Z,1.85
2019-03-27T16:26:01.437Z,2.00
2019-03-27T16:28:30.838Z,2.25
2019-03-27T16:31:00.006Z,2.17
2019-03-27T16:33:31.005Z,2.95
2019-03-27T16:36:02.038Z,3.30
2019-03-27T16:38:32.261Z,6.92
2019-03-27T16:41:02.837Z,6.10
2019-03-27T16:43:34.309Z,3.65
2019-03-27T16:46:04.916Z,2.92
2019-03-27T16:48:36.278Z,4.45
2019-03-27T16:51:05.769Z,4.58
2019-03-27T16:53:37.081Z,3.45
2019-03-27T16:56:06.743Z,4.03
2019-03-27T16:58:36.494Z,5.15
2019-03-27T17:01:07.143Z,2.87
2019-03-27T17:03:36.985Z,2.85
2019-03-27T17:06:07.375Z,3.95
2019-03-27T17:08:37.099Z,3.12
2019-03-27T17:11:07.346Z,3.72
2019-03-27T17:13:36.597Z,3.12
2019-03-27T17:16:05.593Z,3.00
2019-03-27T17:18:35.740Z,3.35
2019-03-27T17:21:04.783Z,3.58
2019-03-27T17:23:37.750Z,5.08
2019-03-27T17:26:06.940Z,8.90
2019-03-27T17:28:37.654Z,5.45
2019-03-27T17:31:07.386Z,3.52
2019-03-27T17:33:36.951Z,3.12
2019-03-27T17:36:05.933Z,3.12
2019-03-27T17:38:35.723Z,2.95
2019-03-27T17:41:05.817Z,3.20
2019-03-27T17:43:35.947Z,2.70
2019-03-27T17:46:05.764Z,2.35
2019-03-27T17:48:34.739Z,2.35
2019-03-27T17:51:03.890Z,2.40
2019-03-27T17:53:32.988Z,8.33
2019-03-27T17:56:02.561Z,3.58
2019-03-27T17:58:31.302Z,5.85
2019-03-27T18:01:02.588Z,4.62
2019-03-27T18:03:33.401Z,4.50
2019-03-27T18:06:03.312Z,3.00
2019-03-27T18:08:32.545Z,3.87
2019-03-27T18:11:02.345Z,3.12
2019-03-27T18:13:32.711Z,2.30
2019-03-27T18:16:02.151Z,2.52
2019-03-27T18:18:31.343Z,2.05
2019-03-27T18:21:00.520Z,1.80
2019-03-27T18:23:45.280Z,1.72
2019-03-27T18:26:08.599Z,1.57
2019-03-27T18:28:37.558Z,1.70
2019-03-27T18:31:07.297Z,1.98
2019-03-27T18:33:38.740Z,1.90
2019-03-27T18:36:10.692Z,2.22
2019-03-27T18:38:39.580Z,6.53
2019-03-27T18:41:08.387Z,2.50
2019-03-27T18:43:39.717Z,2.30
2019-03-27T18:46:10.032Z,1.75
2019-03-27T18:48:41.011Z,2.25
2019-03-27T18:51:11.806Z,2.22
2019-03-27T18:53:43.748Z,2.20
2019-03-27T18:56:14.155Z,2.87
2019-03-27T18:58:43.035Z,2.50
2019-03-27T19:01:12.793Z,2.40
2019-03-27T19:03:41.916Z,2.20
2019-03-27T19:06:12.306Z,2.02
2019-03-27T19:08:41.592Z,2.17
2019-03-27T19:11:12.557Z,1.60
2019-03-27T19:13:43.364Z,1.82
2019-03-27T19:16:13.711Z,1.65
2019-03-27T19:18:46.986Z,1.60
2019-03-27T19:21:17.540Z,1.60
2019-03-27T19:23:46.663Z,1.65
2019-03-27T19:26:16.367Z,1.80
2019-03-27T19:28:48.592Z,1.82
2019-03-27T19:31:20.819Z,1.80
2019-03-27T19:33:50.684Z,1.77
2019-03-27T19:36:20.385Z,1.75
2019-03-27T19:38:49.520Z,2.08
2019-03-27T19:41:19.622Z,1.70
2019-03-27T19:43:48.839Z,2.00
2019-03-27T19:46:20.056Z,2.60
2019-03-27T19:48:51.200Z,1.75
2019-03-27T19:51:20.973Z,1.40
2019-03-27T19:53:51.398Z,1.90
2019-03-27T19:56:21.493Z,1.90
2019-03-27T19:58:51.763Z,1.67
2019-03-27T20:01:23.392Z,1.67
2019-03-27T20:03:53.048Z,2.30
2019-03-27T20:06:22.690Z,2.40
2019-03-27T20:08:51.864Z,2.00
2019-03-27T20:11:21.552Z,1.72
2019-03-27T20:13:53.394Z,1.70
2019-03-27T20:16:23.197Z,1.82
2019-03-27T20:18:53.043Z,1.75
2019-03-27T20:21:21.835Z,1.40
2019-03-27T20:23:51.732Z,1.72
2019-03-27T20:26:23.003Z,1.87
2019-03-27T20:28:51.825Z,1.85
2019-03-27T20:31:21.222Z,1.82
2019-03-27T20:33:52.037Z,1.90
2019-03-27T20:36:22.737Z,4.90
2019-03-27T20:38:51.674Z,9.45
2019-03-27T20:41:22.387Z,7.85
2019-03-27T20:43:53.146Z,4.03
2019-03-27T20:46:26.353Z,3.62
2019-03-27T20:48:54.328Z,2.65
2019-03-27T20:51:23.454Z,2.15
2019-03-27T20:53:55.488Z,2.87
2019-03-27T20:56:24.758Z,2.33
2019-03-27T20:58:57.271Z,7.70
2019-03-27T21:01:29.717Z,3.00
2019-03-27T21:04:01.269Z,3.75
2019-03-27T21:06:30.943Z,4.65
2019-03-27T21:09:01.914Z,3.62
2019-03-27T21:11:30.900Z,2.55
2019-03-27T21:14:00.771Z,2.58
2019-03-27T21:16:31.624Z,2.42
2019-03-27T21:19:00.799Z,2.40
2019-03-27T21:21:29.889Z,2.50
2019-03-27T21:24:01.636Z,2.15
2019-03-27T21:26:32.751Z,2.72
2019-03-27T21:29:01.721Z,2.47
2019-03-27T21:31:30.517Z,2.47
2019-03-27T21:34:01.506Z,3.05
2019-03-27T21:36:36.613Z,5.22
2019-03-27T21:39:07.805Z,8.83
2019-03-27T21:41:37.563Z,4.87
2019-03-27T21:44:09.350Z,4.17
2019-03-27T21:46:39.744Z,3.27
2019-03-27T21:49:10.959Z,3.80
2019-03-27T21:51:41.206Z,4.08
2019-03-27T21:54:12.075Z,3.98
2019-03-27T21:56:41.748Z,4.03
2019-03-27T21:59:11.554Z,3.52
2019-03-27T22:01:41.377Z,3.22
2019-03-27T22:04:10.334Z,4.10
2019-03-27T22:06:40.964Z,4.50
2019-03-27T22:09:12.058Z,4.22
2019-03-27T22:11:43.460Z,2.77
2019-03-27T22:14:12.504Z,3.20
2019-03-27T22:16:42.929Z,2.98
2019-03-27T22:19:12.743Z,3.12
2019-03-27T22:21:43.026Z,2.72
2019-03-27T22:24:14.180Z,3.20
2019-03-27T22:26:44.073Z,4.17
2019-03-27T22:29:13.136Z,4.42
2019-03-27T22:31:42.562Z,3.27
2019-03-27T22:34:12.185Z,3.33
2019-03-27T22:36:44.311Z,2.95
2019-03-27T22:39:13.419Z,3.25
2019-03-27T22:41:42.867Z,2.72
2019-03-27T22:44:14.198Z,2.50
2019-03-27T22:46:44.146Z,4.00
2019-03-27T22:49:12.938Z,2.75
2019-03-27T22:51:42.050Z,3.20
2019-03-27T22:54:12.579Z,2.90
2019-03-27T22:56:42.022Z,2.50
2019-03-27T22:59:11.155Z,2.30
2019-03-27T23:01:46.108Z,2.33
2019-03-27T23:04:17.086Z,2.45
2019-03-27T23:06:47.448Z,2.30
2019-03-27T23:09:21.093Z,2.52
2019-03-27T23:11:53.948Z,2.50
2019-03-27T23:14:23.719Z,2.42
2019-03-27T23:16:53.639Z,2.10
2019-03-27T23:19:24.428Z,2.47
2019-03-27T23:21:54.191Z,2.40
2019-03-27T23:24:24.807Z,2.40
2019-03-27T23:26:56.208Z,2.22
2019-03-27T23:29:25.597Z,3.00
2019-03-27T23:31:59.134Z,2.40
2019-03-27T23:34:29.291Z,2.10
2019-03-27T23:36:58.090Z,2.30
2019-03-27T23:39:28.411Z,2.25
2019-03-27T23:41:59.407Z,2.05
2019-03-27T23:44:30.745Z,2.03
2019-03-27T23:46:59.534Z,2.80
2019-03-27T23:49:28.362Z,2.67
2019-03-27T23:51:59.656Z,2.27
2019-03-27T23:54:30.816Z,2.60
2019-03-27T23:56:59.802Z,2.63
2019-03-27T23:59:30.204Z,3.07
